עמוד ראשי
METAR-TAF:

METAR-TAF

שדות תעופה :

נמל התעופה בן-גוריון

תל אביב-יפו / נמל התעופה בן-גוריון, ישראל

קו רוחב: 32-00N, קו אורך: 034-54E, גובה: 40מטר

תצפית מזג אוויר נוכחית

הדו"ח נערך לפני 35דקות, בשעה 23:20 UTC
רוח 3קשר עם כיוונים משתנים
טמפרטורת 21 צלסיוס
לחות 53%
לחץ 1012 hPa
ראות 10 קילומטר או יותר
ללא עננים שבסיסם נמוך מ 5000 רגל או קומולונימבוס

METAR: LLBG 182320Z VRB03KT CAVOK 21/11 Q1012 NOSIG

זמן: 02:55 (23:55 UTC)

תחזית

הדו"ח נערך לפני 50דקות, בשעה 23:05 UTC
תחזית בתוקף מ 19 ב 00 UTC עד 19 ב 24 UTC
רוח 3קשר עם כיוונים משתנים
ראות 10 קילומטר או יותר
ללא עננים שבסיסם נמוך מ 5000 רגל או קומולונימבוס
הסתברות 40% :
זמנית מ -
19 ב 00 UTC עד 19 ב 06 UTC
רוח 5קשר מכיוון דרום/דרום-מזרח
יעשה מ
19 ב 07 UTC עד 19 ב 09 UTC
רוח 12קשר מכיוון מערב/צפון-מערב
יעשה מ
19 ב 15 UTC עד 19 ב 17 UTC
רוח 3קשר עם כיוונים משתנים
הסתברות 40% :
זמנית מ -
19 ב 20 UTC עד 19 ב 24 UTC
רוח 6קשר מכיוון דרום

TAF: LLBG 182305Z 1900/1924 VRB03KT CAVOK PROB40 TEMPO 1900/1906 15005KT BECMG 1907/1909 29012KT BECMG 1915/1917 VRB03KT PROB40 TEMPO 1920/1924 18006KT TX32/1911Z TN19/1903Z

תצפיות ותחזיות מזג אוויר לגבי יותר מ- 4,000 שדות תעופה ברחבי העולם. דוחות METAR ו- TAF.

התחנות הזמינות מסומנות בנקודות צהובות ואדומות על גבי המפה.

העבר את העכבר לנקודה הצבעונית על מנת לראות את שם התחנה.

לאחר מכן, לחץ כדי לראות את תוכן ואת תחזיות מזג האוויר.

כדי לשנות את המפה: לחץ על הכפתורים הירוקים עם הפלוס השחור כדי להתקרב; על הכפתור הירוק עם המקף כדי להתרחק; או בחיצים הירוקים למפות סמוכות.


METAR-TAF: